Terminal Aerodrome Forecast
Issued by NWS

Current Version | Previous Version | Graphics & Text | Print | Product List | Glossary On
Versions: 1 2 3 4 5 6 7 8 9 10 11 12 13 14 15 16 17 18 19 20 21 22 23 24 25
000
FTUS41 KPBZ 030500
TAFMGW
TAF
KMGW 030520Z 0306/0406 VRB03KT P6SM BKN150
     FM031800 15005KT 6SM -SHRA OVC030
     FM032100 18005KT 2SM -RA BR OVC008=

USA.gov is the U.S. government's official web portal to all federal, state and local government web resources and services.